createdAt,value
2022-09-24T04:18:54.594Z,1.55
2022-09-24T04:21:12.223Z,1.55
2022-09-24T04:23:40.310Z,1.55
2022-09-24T04:25:25.219Z,1.56
2022-09-24T04:32:20.034Z,1.55
2022-09-24T04:33:37.371Z,1.57
2022-09-24T04:37:22.636Z,1.62
2022-09-24T04:38:59.060Z,1.66
2022-09-24T04:40:46.035Z,1.66
2022-09-24T04:42:24.002Z,1.68
2022-09-24T04:45:09.936Z,1.71
2022-09-24T04:51:17.896Z,1.77
2022-09-24T04:52:49.931Z,1.79
2022-09-24T04:56:18.851Z,1.82
2022-09-24T05:01:20.834Z,1.93
2022-09-24T05:02:47.285Z,1.94
2022-09-24T05:03:51.842Z,1.98
2022-09-24T05:04:58.509Z,2.01
2022-09-24T05:06:02.721Z,2.05
2022-09-24T05:07:07.625Z,2.09
2022-09-24T05:08:13.672Z,2.14
2022-09-24T05:09:18.739Z,2.16
2022-09-24T05:10:22.805Z,2.20
2022-09-24T05:11:29.382Z,2.23
2022-09-24T05:12:34.497Z,2.28
2022-09-24T05:13:39.473Z,2.31
2022-09-24T05:14:43.640Z,2.33
2022-09-24T05:15:48.869Z,2.37
2022-09-24T05:16:53.467Z,2.42
2022-09-24T05:17:58.466Z,2.46
2022-09-24T05:19:05.632Z,2.52
2022-09-24T05:20:12.225Z,2.58
2022-09-24T05:21:16.301Z,2.67
2022-09-24T05:22:21.957Z,2.79
2022-09-24T05:23:27.371Z,2.93
2022-09-24T05:24:32.671Z,3.07
2022-09-24T05:25:57.940Z,3.18
2022-09-24T05:27:11.089Z,3.28
2022-09-24T05:28:15.505Z,3.35
2022-09-24T05:29:21.347Z,3.45
2022-09-24T05:30:27.807Z,3.53
2022-09-24T05:31:31.970Z,3.63
2022-09-24T05:32:37.163Z,3.76
2022-09-24T05:33:41.278Z,3.89
2022-09-24T05:34:47.296Z,4.03
2022-09-24T05:35:54.876Z,4.17
2022-09-24T05:37:00.506Z,4.29
2022-09-24T05:38:05.093Z,4.44
2022-09-24T05:39:12.090Z,4.62
2022-09-24T05:40:35.310Z,4.81
2022-09-24T05:41:44.097Z,4.97
2022-09-24T05:42:47.936Z,5.18
2022-09-24T05:43:53.074Z,5.40
2022-09-24T05:44:57.292Z,5.67
2022-09-24T05:46:05.399Z,5.90
2022-09-24T05:47:11.131Z,6.11
2022-09-24T05:48:15.002Z,6.30
2022-09-24T05:49:20.349Z,6.47
2022-09-24T05:50:24.517Z,6.66
2022-09-24T05:51:29.950Z,6.88
2022-09-24T05:52:33.998Z,7.13
2022-09-24T05:53:38.887Z,7.35
2022-09-24T05:54:45.279Z,7.57
2022-09-24T05:55:49.252Z,7.78
2022-09-24T05:56:54.396Z,7.97
2022-09-24T05:58:04.240Z,8.14
2022-09-24T05:59:09.362Z,8.26
2022-09-24T06:00:13.516Z,8.37
2022-09-24T06:01:18.662Z,8.42
2022-09-24T06:02:22.568Z,8.45
2022-09-24T06:03:27.969Z,8.44
2022-09-24T06:04:32.809Z,8.46
2022-09-24T06:05:36.643Z,8.48
2022-09-24T06:06:41.347Z,8.49
2022-09-24T06:07:45.456Z,8.52
2022-09-24T06:08:50.567Z,8.55
2022-09-24T06:09:59.506Z,8.58
2022-09-24T06:11:07.067Z,8.62
2022-09-24T06:12:11.375Z,8.64
2022-09-24T06:13:18.651Z,8.65
2022-09-24T06:14:22.286Z,8.65
2022-09-24T06:15:28.035Z,8.70
2022-09-24T06:16:37.688Z,8.72
2022-09-24T06:17:43.110Z,8.72
2022-09-24T06:18:47.661Z,8.71
2022-09-24T06:19:52.561Z,8.68
2022-09-24T06:20:57.650Z,8.64
2022-09-24T06:22:01.624Z,8.58
2022-09-24T06:23:08.055Z,8.54
2022-09-24T06:24:12.586Z,8.55
2022-09-24T06:25:19.038Z,8.56
2022-09-24T06:26:22.869Z,8.56
2022-09-24T06:27:27.861Z,8.56
2022-09-24T06:28:31.866Z,8.58
2022-09-24T06:29:38.415Z,8.64
2022-09-24T06:30:42.474Z,8.69
2022-09-24T06:31:47.547Z,8.76
2022-09-24T06:32:51.547Z,8.81
2022-09-24T06:34:06.594Z,8.84
2022-09-24T06:35:11.925Z,8.88
2022-09-24T06:36:16.948Z,8.96
2022-09-24T06:37:20.745Z,9.03
2022-09-24T06:38:25.869Z,9.12
2022-09-24T06:39:29.667Z,9.21
2022-09-24T06:40:37.670Z,9.32
2022-09-24T06:41:41.579Z,9.45
2022-09-24T06:42:53.861Z,9.54
2022-09-24T06:43:57.870Z,9.61
2022-09-24T06:45:02.783Z,9.70
2022-09-24T06:46:31.793Z,9.86
2022-09-24T06:47:40.076Z,9.97
2022-09-24T06:48:47.465Z,10.07
2022-09-24T06:49:51.254Z,10.20
2022-09-24T06:50:56.696Z,10.31
2022-09-24T06:52:01.934Z,10.40
2022-09-24T06:53:10.686Z,10.49
2022-09-24T06:54:15.681Z,10.55
2022-09-24T06:55:20.059Z,10.64
2022-09-24T06:56:26.495Z,10.66
2022-09-24T06:57:30.283Z,10.71
2022-09-24T06:58:38.117Z,10.74
2022-09-24T06:59:44.904Z,10.76
2022-09-24T07:00:54.823Z,10.80
2022-09-24T07:02:00.263Z,10.78
2022-09-24T07:03:14.686Z,10.80
2022-09-24T07:04:23.673Z,10.79
2022-09-24T07:05:27.710Z,10.80
2022-09-24T07:06:53.680Z,10.83
2022-09-24T07:07:57.533Z,10.87
2022-09-24T07:09:02.475Z,10.96
2022-09-24T07:10:07.945Z,11.06
2022-09-24T07:11:15.688Z,11.09
2022-09-24T07:12:21.055Z,11.15
2022-09-24T07:13:26.135Z,11.21
2022-09-24T07:14:29.990Z,11.32
2022-09-24T07:15:36.874Z,11.42
2022-09-24T07:16:40.810Z,11.54
2022-09-24T07:17:45.648Z,11.63
2022-09-24T07:18:49.507Z,11.73
2022-09-24T07:19:54.568Z,11.85
2022-09-24T07:20:58.956Z,11.96
2022-09-24T07:22:04.052Z,12.05
2022-09-24T07:23:09.030Z,12.17
2022-09-24T07:24:13.911Z,12.34
2022-09-24T07:25:17.725Z,12.45
2022-09-24T07:26:22.836Z,12.60
2022-09-24T07:27:28.301Z,12.73
2022-09-24T07:28:40.138Z,12.85
2022-09-24T07:29:44.058Z,12.95
2022-09-24T07:30:59.522Z,13.05
2022-09-24T07:32:04.517Z,13.14
2022-09-24T07:33:09.718Z,13.26
2022-09-24T07:34:14.696Z,13.36
2022-09-24T07:36:46.146Z,13.58
2022-09-24T07:38:02.500Z,13.66
2022-09-24T07:39:33.366Z,13.77
2022-09-24T07:40:38.779Z,13.81
2022-09-24T07:41:42.817Z,13.86
2022-09-24T07:42:52.643Z,13.93
2022-09-24T07:43:58.703Z,13.97
2022-09-24T07:45:09.338Z,14.01
2022-09-24T07:46:14.168Z,14.01
2022-09-24T07:47:18.369Z,14.00
2022-09-24T07:48:26.730Z,14.01
2022-09-24T07:49:33.668Z,14.01
2022-09-24T07:50:41.098Z,13.97
2022-09-24T07:51:47.266Z,13.97
2022-09-24T07:52:51.667Z,14.00
2022-09-24T07:53:56.449Z,14.06
2022-09-24T07:54:59.791Z,14.12
2022-09-24T07:56:05.589Z,14.21
2022-09-24T07:57:48.224Z,14.37
2022-09-24T07:58:54.847Z,14.41
2022-09-24T07:59:58.589Z,14.41
2022-09-24T08:01:03.583Z,14.39
2022-09-24T08:02:16.106Z,14.39
2022-09-24T08:03:49.184Z,14.35
2022-09-24T08:04:53.074Z,14.30
2022-09-24T08:06:02.079Z,14.25
2022-09-24T08:07:06.927Z,14.18
2022-09-24T08:08:11.627Z,14.16
2022-09-24T08:09:17.750Z,14.17
2022-09-24T08:10:22.130Z,14.21
2022-09-24T08:11:27.830Z,14.28
2022-09-24T08:12:31.611Z,14.36
2022-09-24T08:13:36.427Z,14.43
2022-09-24T08:14:43.607Z,14.53
2022-09-24T08:15:48.726Z,14.59
2022-09-24T08:16:53.749Z,14.64
2022-09-24T08:18:03.636Z,14.64
2022-09-24T08:19:14.041Z,14.61
2022-09-24T08:20:18.928Z,14.60
2022-09-24T08:21:23.782Z,14.61
2022-09-24T08:22:27.098Z,14.62
2022-09-24T08:23:32.703Z,14.61
2022-09-24T08:24:36.396Z,14.59
2022-09-24T08:25:41.324Z,14.56
2022-09-24T08:26:45.122Z,14.53
2022-09-24T08:27:49.625Z,14.52
2022-09-24T08:28:53.497Z,14.49
2022-09-24T08:30:00.822Z,14.54
2022-09-24T08:31:09.206Z,14.62
2022-09-24T08:32:14.275Z,14.72
2022-09-24T08:33:18.339Z,14.78
2022-09-24T08:34:22.956Z,14.80
2022-09-24T08:35:26.737Z,14.88
2022-09-24T08:36:31.355Z,14.95
2022-09-24T08:37:36.872Z,14.99
2022-09-24T08:38:41.074Z,15.04
2022-09-24T08:39:46.237Z,15.08
2022-09-24T08:40:55.541Z,15.09
2022-09-24T08:42:06.123Z,15.15
2022-09-24T08:43:21.911Z,15.18
2022-09-24T08:44:55.886Z,15.21
2022-09-24T08:46:29.715Z,15.28
2022-09-24T08:47:39.014Z,15.43
2022-09-24T08:48:46.544Z,15.52
2022-09-24T08:49:56.943Z,15.57
2022-09-24T08:51:05.236Z,15.68
2022-09-24T08:52:15.927Z,15.79
2022-09-24T08:53:25.317Z,15.87
2022-09-24T08:54:31.824Z,15.94
2022-09-24T08:55:39.797Z,16.04
2022-09-24T08:56:45.720Z,16.10
2022-09-24T08:57:57.509Z,16.17
2022-09-24T08:59:03.737Z,16.27
2022-09-24T09:00:14.827Z,16.36
2022-09-24T09:01:25.299Z,16.51
2022-09-24T09:02:38.828Z,16.63
2022-09-24T09:03:47.390Z,16.73
2022-09-24T09:05:00.823Z,16.83
2022-09-24T09:06:07.571Z,16.92
2022-09-24T09:07:17.813Z,16.96
2022-09-24T09:08:50.559Z,16.97
2022-09-24T09:09:57.525Z,16.99
2022-09-24T09:11:03.404Z,17.03
2022-09-24T09:12:14.683Z,16.99
2022-09-24T09:13:20.943Z,16.99
2022-09-24T09:14:35.884Z,16.99
2022-09-24T09:15:45.125Z,16.97
2022-09-24T09:16:55.454Z,16.89
2022-09-24T09:18:01.757Z,16.84
2022-09-24T09:19:08.081Z,16.90
2022-09-24T09:20:16.681Z,16.96
2022-09-24T09:21:42.278Z,17.03
2022-09-24T09:22:48.739Z,17.06
2022-09-24T09:23:54.281Z,17.03
2022-09-24T09:25:04.182Z,17.03
2022-09-24T09:26:21.115Z,17.01
2022-09-24T09:27:26.557Z,17.07
2022-09-24T09:28:32.606Z,17.15
2022-09-24T09:29:36.287Z,17.23
2022-09-24T09:30:45.716Z,17.25
2022-09-24T09:31:59.379Z,17.26
2022-09-24T09:33:19.087Z,17.30
2022-09-24T09:34:34.888Z,17.37
2022-09-24T09:35:45.253Z,17.53
2022-09-24T09:37:01.259Z,17.59
2022-09-24T09:38:17.506Z,17.59
2022-09-24T09:39:37.533Z,17.60
2022-09-24T09:40:57.679Z,17.57
2022-09-24T09:42:21.226Z,17.59
2022-09-24T09:43:47.036Z,17.62
2022-09-24T09:44:58.105Z,17.60
2022-09-24T09:46:18.614Z,17.64
2022-09-24T09:47:40.293Z,17.65
2022-09-24T09:48:48.484Z,17.64
2022-09-24T09:49:55.577Z,17.64
2022-09-24T09:51:04.884Z,17.66
2022-09-24T09:52:15.941Z,17.74
2022-09-24T09:53:21.720Z,17.71
2022-09-24T09:54:37.977Z,17.73
2022-09-24T09:55:41.871Z,17.76
2022-09-24T09:56:49.157Z,17.80
2022-09-24T09:57:53.294Z,17.83
2022-09-24T09:59:07.246Z,17.86
2022-09-24T10:00:26.938Z,17.86
2022-09-24T10:01:32.682Z,17.82
2022-09-24T10:02:40.295Z,17.81
2022-09-24T10:03:49.896Z,17.83
2022-09-24T10:04:56.636Z,17.87
2022-09-24T10:06:03.033Z,18.00
2022-09-24T10:07:09.163Z,18.08
2022-09-24T10:08:22.688Z,18.21
2022-09-24T10:09:26.186Z,18.27
2022-09-24T10:10:31.317Z,18.37
2022-09-24T10:11:34.933Z,18.46
2022-09-24T10:12:41.399Z,18.52
2022-09-24T10:14:03.916Z,18.67
2022-09-24T10:15:20.341Z,18.69
2022-09-24T10:16:27.941Z,18.68
2022-09-24T10:17:39.048Z,18.65
2022-09-24T10:18:46.604Z,18.65
2022-09-24T10:19:51.336Z,18.65
2022-09-24T10:20:56.124Z,18.69
2022-09-24T10:22:00.704Z,18.76
2022-09-24T10:23:07.849Z,18.83
2022-09-24T10:24:14.926Z,18.88
2022-09-24T10:25:21.195Z,18.83
2022-09-24T10:26:38.665Z,18.77
2022-09-24T10:27:45.736Z,18.77
2022-09-24T10:29:09.399Z,18.83
2022-09-24T10:30:33.835Z,18.83
2022-09-24T10:31:40.450Z,18.75
2022-09-24T10:32:49.127Z,18.73
2022-09-24T10:33:56.549Z,18.81
2022-09-24T10:35:02.793Z,18.88
2022-09-24T10:36:10.572Z,18.96
2022-09-24T10:37:19.367Z,18.97
2022-09-24T10:38:27.095Z,18.97
2022-09-24T10:39:31.156Z,18.99
2022-09-24T10:40:42.108Z,19.04
2022-09-24T10:41:58.741Z,19.12
2022-09-24T10:43:21.626Z,19.12
2022-09-24T10:44:34.649Z,19.07
2022-09-24T10:45:55.629Z,19.11
2022-09-24T10:47:16.811Z,19.09
2022-09-24T10:48:28.877Z,19.02
2022-09-24T10:49:45.252Z,18.99
2022-09-24T10:50:55.758Z,19.04
2022-09-24T10:52:09.014Z,19.00
2022-09-24T10:53:17.018Z,18.99
2022-09-24T10:54:37.713Z,19.02
2022-09-24T10:55:54.486Z,19.04
2022-09-24T10:56:59.320Z,19.02
2022-09-24T10:58:04.781Z,19.03
2022-09-24T10:59:21.518Z,19.12
2022-09-24T11:00:32.624Z,19.11
2022-09-24T11:01:43.183Z,19.00
2022-09-24T11:03:29.241Z,18.90
2022-09-24T11:04:52.824Z,18.84
2022-09-24T11:06:04.365Z,18.83
2022-09-24T11:07:41.097Z,18.80
2022-09-24T11:09:07.741Z,18.75
2022-09-24T11:10:21.675Z,18.76
2022-09-24T11:11:36.543Z,18.74
2022-09-24T11:12:47.225Z,18.64
2022-09-24T11:14:00.221Z,18.48
2022-09-24T11:15:20.711Z,18.44
2022-09-24T11:16:43.394Z,18.47
2022-09-24T11:17:58.867Z,18.47
2022-09-24T11:19:04.777Z,18.48
2022-09-24T11:20:28.314Z,18.56
2022-09-24T11:21:58.222Z,18.51
2022-09-24T11:23:29.944Z,18.47
2022-09-24T11:25:08.378Z,18.45
2022-09-24T11:26:24.882Z,18.59
2022-09-24T11:27:41.902Z,18.78
2022-09-24T11:29:08.975Z,18.96
2022-09-24T11:30:15.575Z,19.06
2022-09-24T11:31:25.240Z,19.20
2022-09-24T11:32:36.016Z,19.33
2022-09-24T11:34:02.162Z,19.44
2022-09-24T11:35:29.992Z,19.56
2022-09-24T11:36:52.623Z,19.54
2022-09-24T11:38:01.376Z,19.42
2022-09-24T11:39:28.923Z,19.31
2022-09-24T11:40:57.592Z,19.20
2022-09-24T11:42:09.598Z,19.14
2022-09-24T11:43:28.782Z,19.06
2022-09-24T11:45:05.158Z,18.94
2022-09-24T11:46:24.196Z,18.85
2022-09-24T11:47:42.790Z,18.81
2022-09-24T11:49:03.010Z,18.76
2022-09-24T11:50:25.195Z,18.64
2022-09-24T11:51:41.353Z,18.59
2022-09-24T11:52:50.666Z,18.60
2022-09-24T11:54:01.481Z,18.63
2022-09-24T11:55:11.940Z,18.70
2022-09-24T11:56:22.706Z,18.79
2022-09-24T11:57:30.639Z,18.89
2022-09-24T11:58:37.108Z,19.00
2022-09-24T11:59:48.429Z,19.13
2022-09-24T12:00:58.142Z,19.30
2022-09-24T12:02:08.386Z,19.48
2022-09-24T12:03:25.713Z,19.71
2022-09-24T12:04:42.460Z,20.02
2022-09-24T12:05:51.358Z,20.33
2022-09-24T12:07:04.735Z,20.76
2022-09-24T12:08:14.771Z,21.25
2022-09-24T12:09:21.625Z,21.69
2022-09-24T12:10:35.039Z,22.09
2022-09-24T12:11:41.541Z,22.45
2022-09-24T12:12:49.611Z,22.72
2022-09-24T12:13:57.460Z,23.15
2022-09-24T12:15:04.138Z,23.49
2022-09-24T12:16:11.424Z,23.60
2022-09-24T12:17:18.443Z,23.61
2022-09-24T12:18:29.094Z,23.53
2022-09-24T12:19:35.867Z,23.34
2022-09-24T12:20:46.911Z,23.17
2022-09-24T12:21:52.400Z,23.24
2022-09-24T12:23:01.133Z,23.34
2022-09-24T12:24:08.361Z,23.36
2022-09-24T12:25:12.839Z,23.40
2022-09-24T12:26:18.447Z,23.39
2022-09-24T12:27:24.749Z,23.29
2022-09-24T12:28:49.442Z,23.14
2022-09-24T12:30:16.628Z,22.94
2022-09-24T12:31:44.759Z,22.81
2022-09-24T12:32:57.776Z,22.72
2022-09-24T12:34:06.361Z,22.57
2022-09-24T12:35:21.927Z,22.36
2022-09-24T12:36:43.686Z,22.09
2022-09-24T12:37:48.802Z,21.92
2022-09-24T12:38:57.105Z,21.75
2022-09-24T12:40:07.938Z,21.64
2022-09-24T12:41:38.538Z,21.54
2022-09-24T12:42:45.277Z,21.38
2022-09-24T12:43:51.269Z,21.30
2022-09-24T12:44:57.207Z,21.19
2022-09-24T12:46:03.798Z,21.07
2022-09-24T12:47:17.557Z,20.95
2022-09-24T12:48:21.271Z,20.89
2022-09-24T12:49:32.001Z,20.87
2022-09-24T12:50:39.107Z,20.89
2022-09-24T12:51:43.575Z,20.97
2022-09-24T12:52:47.600Z,20.97
2022-09-24T12:54:11.311Z,20.92
2022-09-24T12:55:28.766Z,20.83
2022-09-24T12:56:37.777Z,20.77
2022-09-24T12:57:44.006Z,20.67
2022-09-24T12:58:51.407Z,20.51
2022-09-24T13:00:01.768Z,20.30
2022-09-24T13:01:20.131Z,20.06
2022-09-24T13:02:31.097Z,19.86
2022-09-24T13:03:46.062Z,19.78
2022-09-24T13:05:05.556Z,19.77
2022-09-24T13:06:26.868Z,19.92
2022-09-24T13:07:32.192Z,20.08
2022-09-24T13:08:40.615Z,20.29
2022-09-24T13:09:46.547Z,20.47
2022-09-24T13:10:55.157Z,20.54
2022-09-24T13:12:08.001Z,20.50
2022-09-24T13:13:23.159Z,20.48
2022-09-24T13:14:31.954Z,20.59
2022-09-24T13:15:37.919Z,20.76
2022-09-24T13:16:44.224Z,20.88
2022-09-24T13:17:48.945Z,20.88
2022-09-24T13:18:53.358Z,20.81
2022-09-24T13:19:59.530Z,20.71
2022-09-24T13:21:07.017Z,20.59
2022-09-24T13:22:22.719Z,20.45
2022-09-24T13:23:33.977Z,20.43
2022-09-24T13:24:50.461Z,20.44
2022-09-24T13:25:57.243Z,20.51
2022-09-24T13:27:22.002Z,20.63
2022-09-24T13:28:37.793Z,20.67
2022-09-24T13:29:43.378Z,20.77
2022-09-24T13:30:47.693Z,20.94
2022-09-24T13:31:57.508Z,21.02
2022-09-24T13:33:04.010Z,21.11
2022-09-24T13:34:18.935Z,21.25
2022-09-24T13:35:29.102Z,21.33
2022-09-24T13:36:38.844Z,21.29
2022-09-24T13:37:44.189Z,21.22
2022-09-24T13:38:54.148Z,21.06
2022-09-24T13:40:02.009Z,20.91
2022-09-24T13:41:16.297Z,21.05
2022-09-24T13:42:23.398Z,21.28
2022-09-24T13:43:37.880Z,21.51
2022-09-24T13:44:44.230Z,21.71
2022-09-24T13:45:47.835Z,21.87
2022-09-24T13:46:57.734Z,21.99
2022-09-24T13:48:04.648Z,22.18
2022-09-24T13:49:13.088Z,22.29
2022-09-24T13:50:18.655Z,22.35
2022-09-24T13:51:26.741Z,22.48
2022-09-24T13:52:33.637Z,22.54
2022-09-24T13:53:40.328Z,22.46
2022-09-24T13:54:50.693Z,22.43
2022-09-24T13:55:59.135Z,22.44
2022-09-24T13:57:11.988Z,22.42
2022-09-24T13:58:28.908Z,22.25
2022-09-24T13:59:32.279Z,22.04
2022-09-24T14:00:40.386Z,21.92
2022-09-24T14:01:44.689Z,21.93
2022-09-24T14:02:59.000Z,21.97
2022-09-24T14:04:04.861Z,22.11
2022-09-24T14:05:18.290Z,22.34
2022-09-24T14:06:31.457Z,22.47
2022-09-24T14:07:35.711Z,22.50
2022-09-24T14:08:41.227Z,22.43
2022-09-24T14:09:47.965Z,22.44
2022-09-24T14:10:51.992Z,22.56
2022-09-24T14:11:59.086Z,22.77
2022-09-24T14:13:06.612Z,22.92
2022-09-24T14:14:14.465Z,23.12
2022-09-24T14:15:18.976Z,23.28
2022-09-24T14:16:24.244Z,23.33
2022-09-24T14:17:27.617Z,23.30
2022-09-24T14:18:31.811Z,23.30
2022-09-24T14:19:34.899Z,23.11
2022-09-24T14:20:39.205Z,22.90
2022-09-24T14:21:47.992Z,22.81
2022-09-24T14:22:51.360Z,22.78
2022-09-24T14:23:57.682Z,22.74
2022-09-24T14:25:04.000Z,22.73
2022-09-24T14:26:09.333Z,22.70
2022-09-24T14:27:18.196Z,22.45
2022-09-24T14:28:21.773Z,22.22
2022-09-24T14:29:27.966Z,22.19
2022-09-24T14:30:32.682Z,22.24
2022-09-24T14:31:45.545Z,22.24
2022-09-24T14:32:52.907Z,22.39
2022-09-24T14:33:57.232Z,22.45
2022-09-24T14:35:01.808Z,22.35
2022-09-24T14:36:06.494Z,22.09
2022-09-24T14:37:12.669Z,21.91
2022-09-24T14:38:19.974Z,21.75
2022-09-24T14:39:25.432Z,21.51
2022-09-24T14:40:30.332Z,21.31
2022-09-24T14:41:35.912Z,21.18
2022-09-24T14:42:44.813Z,21.01
2022-09-24T14:43:50.623Z,20.86
2022-09-24T14:44:55.879Z,20.68
2022-09-24T14:46:04.812Z,20.63
2022-09-24T14:47:26.645Z,20.67
2022-09-24T14:48:32.184Z,20.76
2022-09-24T14:49:45.700Z,20.88
2022-09-24T14:50:50.115Z,21.05
2022-09-24T14:51:55.118Z,21.20
2022-09-24T14:53:00.969Z,21.21
2022-09-24T14:54:18.846Z,21.12
2022-09-24T14:55:23.465Z,20.88
2022-09-24T14:56:29.667Z,20.65
2022-09-24T14:57:38.667Z,20.39
2022-09-24T14:58:43.297Z,20.10
2022-09-24T14:59:48.669Z,19.86
2022-09-24T15:00:55.787Z,19.68
2022-09-24T15:02:15.945Z,19.49
2022-09-24T15:03:21.569Z,19.30
2022-09-24T15:04:28.002Z,19.10
2022-09-24T15:05:31.582Z,18.90
2022-09-24T15:06:37.366Z,18.72
2022-09-24T15:07:40.788Z,18.56
2022-09-24T15:08:59.017Z,18.41
2022-09-24T15:10:13.732Z,18.25
2022-09-24T15:11:19.912Z,18.11
2022-09-24T15:12:31.389Z,18.02
2022-09-24T15:13:36.405Z,17.94
2022-09-24T15:14:43.775Z,17.87
2022-09-24T15:15:47.957Z,17.81
2022-09-24T15:16:53.643Z,17.74
2022-09-24T15:17:57.680Z,17.71
2022-09-24T15:19:20.185Z,17.67
2022-09-24T15:20:23.978Z,17.62
2022-09-24T15:21:31.481Z,17.56
2022-09-24T15:22:36.640Z,17.50
2022-09-24T15:23:40.206Z,17.44
2022-09-24T15:24:44.973Z,17.40
2022-09-24T15:25:48.885Z,17.36
2022-09-24T15:27:05.935Z,17.33
2022-09-24T15:28:13.202Z,17.31
2022-09-24T15:29:24.662Z,17.29
2022-09-24T15:30:30.830Z,17.29
2022-09-24T15:31:36.478Z,17.29
2022-09-24T15:32:40.455Z,17.31
2022-09-24T15:33:44.794Z,17.33
2022-09-24T15:34:48.419Z,17.32
2022-09-24T15:35:53.167Z,17.29
2022-09-24T15:36:59.476Z,17.29
2022-09-24T15:38:05.861Z,17.28
2022-09-24T15:39:11.232Z,17.29
2022-09-24T15:40:23.731Z,17.27
2022-09-24T15:41:28.615Z,17.24
2022-09-24T15:42:32.833Z,17.22
2022-09-24T15:43:40.755Z,17.21
2022-09-24T15:44:45.425Z,17.18
2022-09-24T15:45:51.587Z,17.18
2022-09-24T15:46:57.070Z,17.17
2022-09-24T15:48:09.839Z,17.13
2022-09-24T15:49:17.703Z,17.09
2022-09-24T15:50:23.480Z,17.01
2022-09-24T15:51:28.702Z,16.96
2022-09-24T15:52:33.924Z,16.87
2022-09-24T15:53:38.601Z,16.77
2022-09-24T15:54:43.171Z,16.62
2022-09-24T15:55:50.245Z,16.50
2022-09-24T15:56:54.962Z,16.39
2022-09-24T15:58:02.838Z,16.27
2022-09-24T15:59:12.194Z,16.16
2022-09-24T16:00:21.534Z,16.04
2022-09-24T16:01:26.725Z,15.95
2022-09-24T16:02:34.093Z,15.86
2022-09-24T16:03:40.922Z,15.78
2022-09-24T16:04:44.797Z,15.71
2022-09-24T16:05:50.276Z,15.62
2022-09-24T16:06:54.851Z,15.53
2022-09-24T16:07:59.624Z,15.45
2022-09-24T16:09:05.752Z,15.37
2022-09-24T16:10:11.404Z,15.30
2022-09-24T16:11:16.999Z,15.20
2022-09-24T16:12:21.453Z,15.10
2022-09-24T16:13:26.860Z,15.01
2022-09-24T16:14:32.515Z,14.93
2022-09-24T16:15:39.052Z,14.84
2022-09-24T16:16:44.829Z,14.76
2022-09-24T16:17:51.953Z,14.69
2022-09-24T16:18:58.019Z,14.61
2022-09-24T16:20:03.102Z,14.54
2022-09-24T16:21:09.987Z,14.47
2022-09-24T16:22:19.633Z,14.40
2022-09-24T16:23:25.776Z,14.32
2022-09-24T16:24:33.271Z,14.24
2022-09-24T16:25:37.738Z,14.20
2022-09-24T16:26:41.116Z,14.14
2022-09-24T16:27:45.487Z,14.07
2022-09-24T16:28:51.609Z,14.01
2022-09-24T16:29:56.301Z,13.93
2022-09-24T16:31:00.914Z,13.87
2022-09-24T16:32:06.991Z,13.76
2022-09-24T16:33:13.582Z,13.68
2022-09-24T16:34:19.041Z,13.57
2022-09-24T16:35:22.589Z,13.47
2022-09-24T16:36:27.519Z,13.40
2022-09-24T16:37:31.388Z,13.32
2022-09-24T16:38:40.068Z,13.23
2022-09-24T16:39:44.244Z,13.13
2022-09-24T16:40:48.848Z,13.04
2022-09-24T16:41:52.704Z,12.96
2022-09-24T16:42:57.539Z,12.89
2022-09-24T16:44:15.563Z,12.78
2022-09-24T16:45:21.440Z,12.69
2022-09-24T16:46:36.898Z,12.60
2022-09-24T16:47:44.251Z,12.49
2022-09-24T16:48:51.103Z,12.39
2022-09-24T16:49:54.682Z,12.29
2022-09-24T16:51:08.236Z,12.19
2022-09-24T16:52:12.151Z,12.10
2022-09-24T16:53:25.956Z,12.03
2022-09-24T16:54:33.723Z,11.93
2022-09-24T16:55:47.345Z,11.82
2022-09-24T16:56:52.503Z,11.73
2022-09-24T16:57:56.369Z,11.66
2022-09-24T16:59:01.137Z,11.59
2022-09-24T17:00:08.641Z,11.51
2022-09-24T17:01:17.976Z,11.43
2022-09-24T17:02:21.913Z,11.38
2022-09-24T17:03:28.505Z,11.32
2022-09-24T17:04:37.564Z,11.25
2022-09-24T17:05:41.704Z,11.18
2022-09-24T17:06:47.259Z,11.12
2022-09-24T17:07:50.965Z,11.08
2022-09-24T17:09:16.561Z,11.05
2022-09-24T17:10:30.312Z,11.00
2022-09-24T17:11:34.496Z,10.95
2022-09-24T17:12:39.403Z,10.92
2022-09-24T17:13:54.506Z,10.89
2022-09-24T17:15:05.436Z,10.85
2022-09-24T17:16:09.374Z,10.81
2022-09-24T17:17:28.551Z,10.78
2022-09-24T17:18:34.932Z,10.75
2022-09-24T17:19:45.492Z,10.73
2022-09-24T17:20:49.680Z,10.70
2022-09-24T17:21:54.880Z,10.65
2022-09-24T17:22:59.704Z,10.60
2022-09-24T17:24:04.449Z,10.54
2022-09-24T17:25:13.800Z,10.51
2022-09-24T17:26:25.370Z,10.45
2022-09-24T17:27:35.361Z,10.42
2022-09-24T17:28:49.657Z,10.38
2022-09-24T17:29:54.604Z,10.33
2022-09-24T17:31:09.608Z,10.31
2022-09-24T17:32:16.588Z,10.28
2022-09-24T17:33:42.455Z,10.28
2022-09-24T17:35:02.760Z,10.27
2022-09-24T17:36:12.714Z,10.28
2022-09-24T17:37:19.558Z,10.30
2022-09-24T17:38:23.754Z,10.30
2022-09-24T17:39:31.037Z,10.35
2022-09-24T17:40:35.954Z,10.39
2022-09-24T17:41:41.178Z,10.41
2022-09-24T17:42:47.438Z,10.41
2022-09-24T17:43:51.789Z,10.40
2022-09-24T17:44:56.642Z,10.40
2022-09-24T17:46:03.247Z,10.41
2022-09-24T17:47:09.334Z,10.42
2022-09-24T17:48:13.369Z,10.41
2022-09-24T17:49:18.153Z,10.43
2022-09-24T17:50:25.172Z,10.43
2022-09-24T17:51:32.781Z,10.41
2022-09-24T17:52:36.357Z,10.42
2022-09-24T17:53:43.307Z,10.42
2022-09-24T17:54:48.332Z,10.42
2022-09-24T17:55:52.826Z,10.42
2022-09-24T17:56:57.625Z,10.42
2022-09-24T17:58:01.256Z,10.42
2022-09-24T17:59:06.895Z,10.41
2022-09-24T18:00:12.022Z,10.41
2022-09-24T18:01:19.085Z,10.41
2022-09-24T18:02:23.858Z,10.41
2022-09-24T18:03:27.492Z,10.39
2022-09-24T18:04:32.276Z,10.37
2022-09-24T18:05:38.167Z,10.38
2022-09-24T18:06:44.999Z,10.39
2022-09-24T18:07:48.980Z,10.40
2022-09-24T18:08:54.487Z,10.42
2022-09-24T18:10:08.653Z,10.45
2022-09-24T18:11:14.539Z,10.45
2022-09-24T18:12:19.966Z,10.47
2022-09-24T18:13:24.583Z,10.49
2022-09-24T18:14:30.824Z,10.49
2022-09-24T18:15:37.990Z,10.47
2022-09-24T18:16:43.745Z,10.46
2022-09-24T18:17:47.504Z,10.43
2022-09-24T18:18:52.282Z,10.41
2022-09-24T18:19:56.828Z,10.37
2022-09-24T18:21:02.605Z,10.31
2022-09-24T18:22:14.198Z,10.26
2022-09-24T18:23:18.315Z,10.23
2022-09-24T18:24:23.318Z,10.18
2022-09-24T18:25:28.013Z,10.13
2022-09-24T18:26:34.624Z,10.07
2022-09-24T18:27:38.487Z,10.02
2022-09-24T18:28:44.758Z,9.98
2022-09-24T18:29:49.373Z,9.91
2022-09-24T18:31:03.768Z,9.87
2022-09-24T18:32:08.565Z,9.83
2022-09-24T18:33:12.534Z,9.78
2022-09-24T18:34:18.919Z,9.75
2022-09-24T18:35:22.775Z,9.70
2022-09-24T18:36:28.755Z,9.63
2022-09-24T18:37:32.457Z,9.58
2022-09-24T18:38:37.543Z,9.52
2022-09-24T18:39:41.035Z,9.47
2022-09-24T18:40:46.003Z,9.41
2022-09-24T18:41:50.892Z,9.33
2022-09-24T18:42:57.784Z,9.24
2022-09-24T18:44:03.367Z,9.19
2022-09-24T18:45:08.296Z,9.12
2022-09-24T18:46:15.314Z,9.08
2022-09-24T18:47:20.813Z,9.06
2022-09-24T18:48:25.723Z,9.04
2022-09-24T18:49:30.810Z,9.04
2022-09-24T18:50:34.801Z,9.02
2022-09-24T18:51:48.249Z,9.00
2022-09-24T18:52:52.492Z,9.00
2022-09-24T18:53:59.463Z,8.97
2022-09-24T18:55:03.408Z,8.95
2022-09-24T18:56:10.105Z,8.94
2022-09-24T18:57:15.123Z,8.92
2022-09-24T18:58:18.955Z,8.91
2022-09-24T18:59:24.445Z,8.89
2022-09-24T19:00:46.078Z,8.87
2022-09-24T19:01:52.043Z,8.82
2022-09-24T19:02:56.289Z,8.77
2022-09-24T19:04:06.073Z,8.70
2022-09-24T19:05:43.824Z,8.60
2022-09-24T19:06:51.026Z,8.52
2022-09-24T19:07:54.843Z,8.44
2022-09-24T19:09:00.505Z,8.37
2022-09-24T19:10:04.339Z,8.31
2022-09-24T19:11:10.423Z,8.26
2022-09-24T19:12:14.994Z,8.25
2022-09-24T19:13:22.556Z,8.21
2022-09-24T19:14:31.340Z,8.17
2022-09-24T19:15:36.102Z,8.13
2022-09-24T19:16:41.184Z,8.09
2022-09-24T19:17:45.075Z,8.05
2022-09-24T19:18:49.809Z,8.03
2022-09-24T19:19:53.405Z,8.02
2022-09-24T19:20:58.680Z,8.01
2022-09-24T19:22:04.955Z,8.01
2022-09-24T19:23:10.251Z,7.99
2022-09-24T19:24:15.402Z,7.93
2022-09-24T19:25:18.882Z,7.90
2022-09-24T19:26:27.806Z,7.88
2022-09-24T19:27:33.571Z,7.87
2022-09-24T19:28:40.222Z,7.85
2022-09-24T19:29:44.846Z,7.82
2022-09-24T19:30:49.794Z,7.80
2022-09-24T19:31:54.398Z,7.79
2022-09-24T19:33:00.179Z,7.75
2022-09-24T19:34:09.523Z,7.72
2022-09-24T19:35:13.273Z,7.70
2022-09-24T19:36:19.197Z,7.68
2022-09-24T19:37:27.114Z,7.66
2022-09-24T19:38:33.285Z,7.61